• Join FlightAware (Why Join?)
  • Login
  • US Flag 
04:53AM EDT


 

Airport Tracker/Info


-or-


 

Live Flight TrackerFlight Track Log ✈ SWA542 ✈ 14-Apr-2013 ✈ KSEA - KOAK

Flight Track Log - Related Links

Times and Time Zones

All times are in EDT time to prevent confusion due to time zone crossing. See the SWA542 flight status page for this flight to view local times or setup timezone preferences in your user account.

Time Position Orientation Groundspeed Altitude Reporting Facility
EDT Latitude Longitude Course Direction KTS MPH feet Rate Location/Type
09:33PM 47.5103 -122.3083 North 193 222 2,700  Level Seattle Center
09:34PM 47.5733 -122.3292 347° North 266 306 5,700 3,420 Climbing Seattle Center
09:35PM 47.6131 -122.4158 304° West 287 330 9,700 3,480 Climbing Seattle Center
09:36PM 47.5886 -122.5161 250° West 321 369 12,200 3,240 Climbing Seattle Center
09:37PM 47.5267 -122.6117 226° Southwest 340 391 15,800 3,360 Climbing Seattle Center
09:38PM 47.4597 -122.7139 226° Southwest 348 400 19,000 3,000 Climbing Seattle Center
09:39PM 47.3883 -122.8219 226° Southwest 364 419 21,900 2,700 Climbing Seattle Center
09:40PM 47.3136 -122.9342 226° Southwest 380 437 24,600 2,460 Climbing Seattle Center
09:41PM 47.2372 -123.0503 226° Southwest 394 453 26,900 2,100 Climbing Seattle Center
09:42PM 47.1383 -123.1344 210° Southwest 414 476 28,900 1,680 Climbing Seattle Center
09:43PM 47.0133 -123.1283 178° South 449 517 30,400 1,620 Climbing Seattle Center
09:44PM 46.8603 -123.1181 177° South 465 535 32,300 1,680 Climbing Seattle Center
09:45PM 46.7289 -123.1081 177° South 474 545 33,900 1,680 Climbing Seattle Center
09:46PM 46.6014 -123.1028 178° South 466 536 35,700 1,320 Climbing Seattle Center
09:47PM 46.4714 -123.0936 177° South 472 543 36,700 600 Climbing Seattle Center
09:48PM 46.3389 -123.0819 177° South 478 550 37,000 360 Climbing Seattle Center
09:49PM 46.2056 -123.0725 177° South 482 555 37,500 780 Climbing Seattle Center
09:50PM 46.0586 -123.0606 177° South 483 556 38,600 720 Climbing Seattle Center
09:51PM 45.9236 -123.0506 177° South 485 558 39,000 180 Climbing Seattle Center
09:52PM 45.7878 -123.0400 177° South 487 560 39,000  Level Seattle Center
09:53PM 45.6514 -123.0297 177° South 490 564 39,000  Level Seattle Center
09:54PM 45.5167 -123.0192 177° South 486 559 39,000  Level Seattle Center
09:55PM 45.3814 -123.0072 176° South 484 557 39,000  Level Seattle Center
09:56PM 45.2469 -122.9967 177° South 482 555 39,000  Level Seattle Center
09:57PM 45.1133 -122.9883 177° South 480 552 39,000  Level Seattle Center
09:58PM 44.9797 -122.9792 177° South 478 550 39,000  Level Seattle Center
09:59PM 44.8461 -122.9689 177° South 478 550 39,000  Level Seattle Center
10:00PM 44.7136 -122.9581 177° South 474 545 39,000  Level Seattle Center
10:01PM 44.5803 -122.9489 177° South 477 549 39,000  Level Seattle Center
10:02PM 44.4456 -122.9403 177° South 482 555 39,000  Level Seattle Center
10:03PM 44.2978 -122.9369 179° South 483 556 39,000  Level Seattle Center
10:04PM 44.1606 -122.9328 179° South 486 559 39,000  Level Seattle Center
10:05PM 44.0228 -122.9281 179° South 489 563 39,000  Level Seattle Center
10:06PM 43.8867 -122.9228 178° South 488 562 39,000  Level Seattle Center
10:07PM 43.7531 -122.9203 179° South 481 554 39,000  Level Seattle Center
10:08PM 43.6183 -122.9161 179° South 483 556 39,000  Level Seattle Center
10:09PM 43.4833 -122.9111 178° South 485 558 39,000  Level Seattle Center
10:10PM 43.3503 -122.9067 179° South 479 551 39,000  Level Seattle Center
10:11PM 43.2189 -122.9025 179° South 474 545 39,000  Level Seattle Center
10:12PM 43.0867 -122.8986 179° South 473 544 39,000  Level Seattle Center
10:13PM 42.9556 -122.8931 178° South 473 544 39,000  Level Seattle Center
10:14PM 42.8225 -122.8900 179° South 476 548 39,000  Level Seattle Center
10:15PM 42.6975 -122.8869 179° South 476 548 39,000  Level Seattle Center
10:16PM 42.5400 -122.8825 179° South 474 545 39,000  Level Seattle Center
10:17PM 42.4083 -122.8794 179° South 474 545 39,000  Level Seattle Center
10:18PM 42.2767 -122.8753 179° South 476 548 39,000  Level Seattle Center
10:19PM 42.1442 -122.8736 179° South 478 550 39,000  Level Seattle Center
10:20PM 42.0117 -122.8683 178° South 479 551 39,000  Level Seattle Center
10:21PM 41.8797 -122.8647 179° South 477 549 39,000  Level Seattle Center
10:22PM 41.7483 -122.8625 179° South 475 547 39,000  Level Seattle Center
10:23PM 41.6161 -122.8553 178° South 476 548 39,000  Level Seattle Center
10:24PM 41.4839 -122.8444 176° South 477 549 39,000  Level Seattle Center
10:25PM 41.3383 -122.8367 178° South 476 548 39,000  Level Seattle Center
10:26PM 41.2067 -122.8253 176° South 475 547 39,000  Level Seattle Center
10:27PM 41.1019 -122.8194 178° South 475 547 39,000  Level Oakland Center
10:28PM 40.9675 -122.8122 178° South 482 555 39,000  Level Oakland Center
10:29PM 40.8306 -122.8017 177° South 493 567 39,000  Level Oakland Center
10:30PM 40.6950 -122.7925 177° South 491 565 39,000  Level Oakland Center
10:31PM 40.5581 -122.7833 177° South 495 570 39,000  Level Oakland Center
10:32PM 40.4200 -122.7742 177° South 500 575 39,000 -420 Level Oakland Center
10:33PM 40.2547 -122.7631 177° South 500 575 38,200 -1,020 Descending Oakland Center
10:34PM 40.1247 -122.7544 177° South 479 551 37,000 -1,140 Descending Oakland Center
10:35PM 40.0017 -122.7472 177° South 453 521 36,000 -1,020 Descending Oakland Center
10:36PM 39.8764 -122.7386 177° South 452 520 35,000 -960 Descending Oakland Center
10:37PM 39.7494 -122.7306 177° South 459 528 34,100 -960 Descending Oakland Center
10:38PM 39.6219 -122.7203 176° South 461 531 33,100 -960 Descending Oakland Center
10:39PM 39.4956 -122.7139 178° South 459 528 32,200 -1,140 Descending Oakland Center
10:40PM 39.3667 -122.7075 178° South 464 534 30,900 -1,800 Descending Oakland Center
10:41PM 39.2364 -122.6989 177° South 469 540 28,600 -2,520 Descending Oakland Center
10:42PM 39.0886 -122.6833 175° South 452 520 25,800 -2,520 Descending Oakland Center
10:43PM 38.9647 -122.6769 178° South 447 514 23,500 -2,280 Descending Oakland Center
10:44PM 38.8419 -122.6742 179° South 441 507 21,200 -2,400 Descending Oakland Center
10:46PM 38.7236 -122.6664 177° South 430 495 18,700 -2,280 Descending Oakland Center
10:47PM 38.6094 -122.6569 176° South 418 481 16,600 -2,040 Descending Oakland Center
10:48PM 38.4997 -122.6458 175° South 402 463 14,600 -1,980 Descending Oakland Center
10:49PM 38.3944 -122.6250 171° South 388 447 12,600 -1,920 Descending Oakland Center
10:50PM 38.2939 -122.6061 172° South 372 428 10,700 -1,380 Descending Oakland Center
10:51PM 38.1986 -122.5878 171° South 354 407 9,800 -1,260 Descending Oakland Center
10:52PM 38.1106 -122.5711 172° South 328 377 8,200 -1,320 Descending Oakland Center
10:53PM 38.0364 -122.5106 147° Southeast 317 365 7,200 -1,020 Descending Oakland Center
10:54PM 37.9664 -122.4456 144° Southeast 308 354 6,200 -1,020 Descending Oakland Center
10:55PM 37.8942 -122.3786 144° Southeast 314 361 5,200 -600 Descending Oakland Center
10:56PM 37.8414 -122.2950 129° Southeast 308 354 5,000 -300 Descending Oakland Center
10:57PM 37.7906 -122.2083 127° Southeast 307 353 4,600 -600 Descending Oakland Center
10:58PM 37.7419 -122.1247 126° Southeast 299 344 3,800 -660 Descending Oakland Center
10:59PM 37.6744 -122.0878 157° South 268 308 3,300 -780 Descending Oakland Center
11:00PM 37.6328 -122.1156 208° Southwest 205 236 2,300 -1,020 Descending Oakland Center
11:01PM 37.6556 -122.1453 314° West 150 173 1,300 -840 Descending Oakland Center
11:02PM 37.6769 -122.1783 309° West 130 150 700 -600 Descending Oakland Center
11:03PM 37.6981 -122.2089 311° West 121 139 100 -600 Descending Oakland Center